sensor_id;sensor_type;location;lat;lon;timestamp;temperature;humidity
54846;DHT22;53889;50.084;8.646;2023-06-19T00:00:02;26.90;60.60
54846;DHT22;53889;50.084;8.646;2023-06-19T00:02:37;27.00;60.60
54846;DHT22;53889;50.084;8.646;2023-06-19T00:05:04;26.90;60.20
54846;DHT22;53889;50.084;8.646;2023-06-19T00:07:31;27.00;60.20
54846;DHT22;53889;50.084;8.646;2023-06-19T00:09:59;27.00;61.70
54846;DHT22;53889;50.084;8.646;2023-06-19T00:12:25;27.00;61.10
54846;DHT22;53889;50.084;8.646;2023-06-19T00:14:52;27.00;60.10
54846;DHT22;53889;50.084;8.646;2023-06-19T00:17:18;27.10;60.10
54846;DHT22;53889;50.084;8.646;2023-06-19T00:19:45;27.00;60.40
54846;DHT22;53889;50.084;8.646;2023-06-19T00:22:14;26.90;60.50
54846;DHT22;53889;50.084;8.646;2023-06-19T00:24:40;26.70;60.20
54846;DHT22;53889;50.084;8.646;2023-06-19T00:27:08;26.70;60.80
54846;DHT22;53889;50.084;8.646;2023-06-19T00:29:35;26.70;60.50
54846;DHT22;53889;50.084;8.646;2023-06-19T00:32:02;26.70;60.50
54846;DHT22;53889;50.084;8.646;2023-06-19T00:34:29;26.60;60.40
54846;DHT22;53889;50.084;8.646;2023-06-19T00:36:56;26.60;60.50
54846;DHT22;53889;50.084;8.646;2023-06-19T00:39:23;26.50;61.50
54846;DHT22;53889;50.084;8.646;2023-06-19T00:41:51;26.50;61.60
54846;DHT22;53889;50.084;8.646;2023-06-19T00:44:19;26.50;61.00
54846;DHT22;53889;50.084;8.646;2023-06-19T00:46:46;26.50;61.90
54846;DHT22;53889;50.084;8.646;2023-06-19T00:49:14;26.50;61.50
54846;DHT22;53889;50.084;8.646;2023-06-19T00:51:41;26.50;61.50
54846;DHT22;53889;50.084;8.646;2023-06-19T00:54:08;26.40;61.70
54846;DHT22;53889;50.084;8.646;2023-06-19T00:56:37;26.30;62.00
54846;DHT22;53889;50.084;8.646;2023-06-19T00:59:10;26.30;62.20
54846;DHT22;53889;50.084;8.646;2023-06-19T01:01:39;26.10;62.30
54846;DHT22;53889;50.084;8.646;2023-06-19T01:04:06;26.10;62.70
54846;DHT22;53889;50.084;8.646;2023-06-19T01:06:40;26.00;62.90
54846;DHT22;53889;50.084;8.646;2023-06-19T01:09:13;26.00;63.00
54846;DHT22;53889;50.084;8.646;2023-06-19T01:11:44;26.00;63.10
54846;DHT22;53889;50.084;8.646;2023-06-19T01:14:15;25.70;65.50
54846;DHT22;53889;50.084;8.646;2023-06-19T01:16:45;25.50;66.10
54846;DHT22;53889;50.084;8.646;2023-06-19T01:19:15;25.20;66.70
54846;DHT22;53889;50.084;8.646;2023-06-19T01:21:44;25.00;67.30
54846;DHT22;53889;50.084;8.646;2023-06-19T01:24:12;25.00;67.50
54846;DHT22;53889;50.084;8.646;2023-06-19T01:26:39;25.00;67.80
54846;DHT22;53889;50.084;8.646;2023-06-19T01:29:06;25.00;67.80
54846;DHT22;53889;50.084;8.646;2023-06-19T01:31:38;24.80;69.80
54846;DHT22;53889;50.084;8.646;2023-06-19T01:34:09;24.60;71.10
54846;DHT22;53889;50.084;8.646;2023-06-19T01:36:37;24.40;71.90
54846;DHT22;53889;50.084;8.646;2023-06-19T01:39:05;24.50;72.20
54846;DHT22;53889;50.084;8.646;2023-06-19T01:41:34;24.70;72.10
54846;DHT22;53889;50.084;8.646;2023-06-19T01:44:01;24.60;72.30
54846;DHT22;53889;50.084;8.646;2023-06-19T01:46:28;24.50;73.90
54846;DHT22;53889;50.084;8.646;2023-06-19T01:48:54;24.30;74.90
54846;DHT22;53889;50.084;8.646;2023-06-19T01:51:21;24.40;75.20
54846;DHT22;53889;50.084;8.646;2023-06-19T01:53:48;24.10;76.10
54846;DHT22;53889;50.084;8.646;2023-06-19T01:56:14;24.00;76.70
54846;DHT22;53889;50.084;8.646;2023-06-19T01:58:42;23.80;77.40
54846;DHT22;53889;50.084;8.646;2023-06-19T02:01:10;23.80;77.90
54846;DHT22;53889;50.084;8.646;2023-06-19T02:03:37;23.80;77.70
54846;DHT22;53889;50.084;8.646;2023-06-19T02:06:04;23.80;77.70
54846;DHT22;53889;50.084;8.646;2023-06-19T02:08:30;23.60;78.60
54846;DHT22;53889;50.084;8.646;2023-06-19T02:10:57;23.60;78.70
54846;DHT22;53889;50.084;8.646;2023-06-19T02:13:23;23.80;78.30
54846;DHT22;53889;50.084;8.646;2023-06-19T02:15:51;23.80;78.20
54846;DHT22;53889;50.084;8.646;2023-06-19T02:18:23;23.80;78.40
54846;DHT22;53889;50.084;8.646;2023-06-19T02:20:51;23.80;78.70
54846;DHT22;53889;50.084;8.646;2023-06-19T02:23:17;23.80;78.40
54846;DHT22;53889;50.084;8.646;2023-06-19T02:25:44;23.90;78.50
54846;DHT22;53889;50.084;8.646;2023-06-19T02:28:11;23.80;78.90
54846;DHT22;53889;50.084;8.646;2023-06-19T02:30:37;23.40;80.10
54846;DHT22;53889;50.084;8.646;2023-06-19T02:33:05;23.10;81.20
54846;DHT22;53889;50.084;8.646;2023-06-19T02:35:32;23.10;80.90
54846;DHT22;53889;50.084;8.646;2023-06-19T02:37:59;23.00;80.70
54846;DHT22;53889;50.084;8.646;2023-06-19T02:40:25;22.90;81.00
54846;DHT22;53889;50.084;8.646;2023-06-19T02:42:53;22.80;81.10
54846;DHT22;53889;50.084;8.646;2023-06-19T02:45:19;22.80;81.30
54846;DHT22;53889;50.084;8.646;2023-06-19T02:47:47;22.60;81.70
54846;DHT22;53889;50.084;8.646;2023-06-19T02:50:15;22.40;82.00
54846;DHT22;53889;50.084;8.646;2023-06-19T02:52:42;22.50;81.90
54846;DHT22;53889;50.084;8.646;2023-06-19T02:55:08;22.50;82.10
54846;DHT22;53889;50.084;8.646;2023-06-19T02:57:35;22.60;81.40
54846;DHT22;53889;50.084;8.646;2023-06-19T03:00:03;22.80;80.50
54846;DHT22;53889;50.084;8.646;2023-06-19T03:02:31;22.90;80.40
54846;DHT22;53889;50.084;8.646;2023-06-19T03:04:59;22.70;80.50
54846;DHT22;53889;50.084;8.646;2023-06-19T03:07:27;22.80;80.50
54846;DHT22;53889;50.084;8.646;2023-06-19T03:09:54;22.70;80.80
54846;DHT22;53889;50.084;8.646;2023-06-19T03:12:21;22.70;80.90
54846;DHT22;53889;50.084;8.646;2023-06-19T03:14:48;22.60;80.80
54846;DHT22;53889;50.084;8.646;2023-06-19T03:17:15;22.60;80.20
54846;DHT22;53889;50.084;8.646;2023-06-19T03:19:41;22.60;80.20
54846;DHT22;53889;50.084;8.646;2023-06-19T03:22:08;22.70;79.40
54846;DHT22;53889;50.084;8.646;2023-06-19T03:24:36;22.70;79.30
54846;DHT22;53889;50.084;8.646;2023-06-19T03:27:16;22.80;79.10
54846;DHT22;53889;50.084;8.646;2023-06-19T03:29:43;22.60;79.00
54846;DHT22;53889;50.084;8.646;2023-06-19T03:32:13;22.80;78.60
54846;DHT22;53889;50.084;8.646;2023-06-19T03:34:40;22.80;78.20
54846;DHT22;53889;50.084;8.646;2023-06-19T03:37:08;22.90;77.90
54846;DHT22;53889;50.084;8.646;2023-06-19T03:39:36;22.90;78.10
54846;DHT22;53889;50.084;8.646;2023-06-19T03:42:07;22.80;78.10
54846;DHT22;53889;50.084;8.646;2023-06-19T03:44:34;22.80;78.00
54846;DHT22;53889;50.084;8.646;2023-06-19T03:47:01;22.60;78.70
54846;DHT22;53889;50.084;8.646;2023-06-19T03:49:28;22.70;78.40
54846;DHT22;53889;50.084;8.646;2023-06-19T03:51:55;22.60;79.00
54846;DHT22;53889;50.084;8.646;2023-06-19T03:54:23;22.60;78.50
54846;DHT22;53889;50.084;8.646;2023-06-19T03:56:51;22.60;78.60
54846;DHT22;53889;50.084;8.646;2023-06-19T03:59:18;22.50;78.80
54846;DHT22;53889;50.084;8.646;2023-06-19T04:01:45;22.60;78.50
54846;DHT22;53889;50.084;8.646;2023-06-19T04:04:11;22.40;79.40
54846;DHT22;53889;50.084;8.646;2023-06-19T04:06:38;22.40;79.70
54846;DHT22;53889;50.084;8.646;2023-06-19T04:09:06;22.30;80.20
54846;DHT22;53889;50.084;8.646;2023-06-19T04:11:32;22.40;80.10
54846;DHT22;53889;50.084;8.646;2023-06-19T04:14:02;22.40;79.90
54846;DHT22;53889;50.084;8.646;2023-06-19T04:16:29;22.40;80.30
54846;DHT22;53889;50.084;8.646;2023-06-19T04:18:55;22.40;80.40
54846;DHT22;53889;50.084;8.646;2023-06-19T04:21:22;22.40;81.20
54846;DHT22;53889;50.084;8.646;2023-06-19T04:23:50;22.20;83.10
54846;DHT22;53889;50.084;8.646;2023-06-19T04:26:16;22.30;83.40
54846;DHT22;53889;50.084;8.646;2023-06-19T04:28:44;22.20;87.00
54846;DHT22;53889;50.084;8.646;2023-06-19T04:31:12;22.00;89.10
54846;DHT22;53889;50.084;8.646;2023-06-19T04:33:43;21.90;91.10
54846;DHT22;53889;50.084;8.646;2023-06-19T04:36:10;21.70;90.40
54846;DHT22;53889;50.084;8.646;2023-06-19T04:38:36;21.60;91.90
54846;DHT22;53889;50.084;8.646;2023-06-19T04:41:03;21.60;92.40
54846;DHT22;53889;50.084;8.646;2023-06-19T04:43:30;21.50;93.10
54846;DHT22;53889;50.084;8.646;2023-06-19T04:45:58;21.60;93.50
54846;DHT22;53889;50.084;8.646;2023-06-19T04:48:26;21.70;92.80
54846;DHT22;53889;50.084;8.646;2023-06-19T04:50:52;21.80;92.60
54846;DHT22;53889;50.084;8.646;2023-06-19T04:53:21;21.90;92.70
54846;DHT22;53889;50.084;8.646;2023-06-19T04:55:48;22.00;92.90
54846;DHT22;53889;50.084;8.646;2023-06-19T04:58:15;22.10;92.10
54846;DHT22;53889;50.084;8.646;2023-06-19T05:00:43;22.20;91.50
54846;DHT22;53889;50.084;8.646;2023-06-19T05:03:09;22.20;91.80
54846;DHT22;53889;50.084;8.646;2023-06-19T05:05:40;22.30;91.90
54846;DHT22;53889;50.084;8.646;2023-06-19T05:08:07;22.30;91.20
54846;DHT22;53889;50.084;8.646;2023-06-19T05:10:34;22.40;91.20
54846;DHT22;53889;50.084;8.646;2023-06-19T05:13:01;22.40;90.70
54846;DHT22;53889;50.084;8.646;2023-06-19T05:15:28;22.70;90.60
54846;DHT22;53889;50.084;8.646;2023-06-19T05:17:55;22.90;90.10
54846;DHT22;53889;50.084;8.646;2023-06-19T05:20:22;22.90;90.60
54846;DHT22;53889;50.084;8.646;2023-06-19T05:22:50;23.20;89.40
54846;DHT22;53889;50.084;8.646;2023-06-19T05:25:17;23.50;88.00
54846;DHT22;53889;50.084;8.646;2023-06-19T05:27:43;23.70;87.20
54846;DHT22;53889;50.084;8.646;2023-06-19T05:30:11;24.10;85.40
54846;DHT22;53889;50.084;8.646;2023-06-19T05:32:38;24.40;84.70
54846;DHT22;53889;50.084;8.646;2023-06-19T05:35:05;24.80;83.10
54846;DHT22;53889;50.084;8.646;2023-06-19T05:37:33;25.30;81.50
54846;DHT22;53889;50.084;8.646;2023-06-19T05:40:01;25.40;80.20
54846;DHT22;53889;50.084;8.646;2023-06-19T05:42:29;25.20;80.20
54846;DHT22;53889;50.084;8.646;2023-06-19T05:44:55;25.40;80.40
54846;DHT22;53889;50.084;8.646;2023-06-19T05:47:22;25.70;79.40
54846;DHT22;53889;50.084;8.646;2023-06-19T05:49:51;26.10;78.00
54846;DHT22;53889;50.084;8.646;2023-06-19T05:52:17;26.10;78.10
54846;DHT22;53889;50.084;8.646;2023-06-19T05:54:44;26.40;77.50
54846;DHT22;53889;50.084;8.646;2023-06-19T05:57:12;26.30;76.80
54846;DHT22;53889;50.084;8.646;2023-06-19T05:59:41;26.00;78.10
54846;DHT22;53889;50.084;8.646;2023-06-19T06:02:08;26.40;77.70
54846;DHT22;53889;50.084;8.646;2023-06-19T06:04:35;26.30;77.70
54846;DHT22;53889;50.084;8.646;2023-06-19T06:07:02;26.10;77.70
54846;DHT22;53889;50.084;8.646;2023-06-19T06:09:29;26.40;77.10
54846;DHT22;53889;50.084;8.646;2023-06-19T06:11:55;26.20;77.70
54846;DHT22;53889;50.084;8.646;2023-06-19T06:14:24;26.00;78.30
54846;DHT22;53889;50.084;8.646;2023-06-19T06:16:51;26.10;78.30
54846;DHT22;53889;50.084;8.646;2023-06-19T06:19:19;25.90;78.40
54846;DHT22;53889;50.084;8.646;2023-06-19T06:21:46;26.00;78.50
54846;DHT22;53889;50.084;8.646;2023-06-19T06:24:13;26.30;78.40
54846;DHT22;53889;50.084;8.646;2023-06-19T06:26:40;26.40;77.70
54846;DHT22;53889;50.084;8.646;2023-06-19T06:29:07;26.40;77.10
54846;DHT22;53889;50.084;8.646;2023-06-19T06:31:37;26.40;77.20
54846;DHT22;53889;50.084;8.646;2023-06-19T06:34:04;26.60;76.80
54846;DHT22;53889;50.084;8.646;2023-06-19T06:36:31;26.90;76.50
54846;DHT22;53889;50.084;8.646;2023-06-19T06:38:58;27.00;76.00
54846;DHT22;53889;50.084;8.646;2023-06-19T06:41:24;26.90;75.80
54846;DHT22;53889;50.084;8.646;2023-06-19T06:43:51;26.80;75.70
54846;DHT22;53889;50.084;8.646;2023-06-19T06:46:19;27.30;75.60
54846;DHT22;53889;50.084;8.646;2023-06-19T06:48:48;27.40;74.50
54846;DHT22;53889;50.084;8.646;2023-06-19T06:51:15;27.60;73.80
54846;DHT22;53889;50.084;8.646;2023-06-19T06:53:42;27.90;73.70
54846;DHT22;53889;50.084;8.646;2023-06-19T06:56:09;28.30;73.20
54846;DHT22;53889;50.084;8.646;2023-06-19T06:58:36;28.50;72.20
54846;DHT22;53889;50.084;8.646;2023-06-19T07:01:04;28.80;71.90
54846;DHT22;53889;50.084;8.646;2023-06-19T07:03:31;29.10;70.90
54846;DHT22;53889;50.084;8.646;2023-06-19T07:05:59;29.60;69.50
54846;DHT22;53889;50.084;8.646;2023-06-19T07:08:26;29.80;69.30
54846;DHT22;53889;50.084;8.646;2023-06-19T07:10:53;29.90;68.80
54846;DHT22;53889;50.084;8.646;2023-06-19T07:13:20;29.90;68.70
54846;DHT22;53889;50.084;8.646;2023-06-19T07:15:47;29.90;69.00
54846;DHT22;53889;50.084;8.646;2023-06-19T07:18:13;29.90;68.80
54846;DHT22;53889;50.084;8.646;2023-06-19T07:20:40;29.80;69.00
54846;DHT22;53889;50.084;8.646;2023-06-19T07:23:09;29.70;69.00
54846;DHT22;53889;50.084;8.646;2023-06-19T07:25:36;29.40;69.40
54846;DHT22;53889;50.084;8.646;2023-06-19T07:28:03;28.80;69.70
54846;DHT22;53889;50.084;8.646;2023-06-19T07:30:31;28.80;70.10
54846;DHT22;53889;50.084;8.646;2023-06-19T07:32:58;28.90;69.70
54846;DHT22;53889;50.084;8.646;2023-06-19T07:35:25;28.70;70.70
54846;DHT22;53889;50.084;8.646;2023-06-19T07:37:51;28.40;71.20
54846;DHT22;53889;50.084;8.646;2023-06-19T07:40:19;28.10;71.40
54846;DHT22;53889;50.084;8.646;2023-06-19T07:42:46;28.20;71.60
54846;DHT22;53889;50.084;8.646;2023-06-19T07:45:13;28.00;71.80
54846;DHT22;53889;50.084;8.646;2023-06-19T07:47:40;27.60;72.80
54846;DHT22;53889;50.084;8.646;2023-06-19T07:50:07;27.60;73.40
54846;DHT22;53889;50.084;8.646;2023-06-19T07:52:34;27.80;73.10
54846;DHT22;53889;50.084;8.646;2023-06-19T07:55:01;27.90;72.80
54846;DHT22;53889;50.084;8.646;2023-06-19T07:57:29;27.90;73.30
54846;DHT22;53889;50.084;8.646;2023-06-19T07:59:55;27.70;73.50
54846;DHT22;53889;50.084;8.646;2023-06-19T08:02:22;27.80;73.60
54846;DHT22;53889;50.084;8.646;2023-06-19T08:04:49;27.70;73.80
54846;DHT22;53889;50.084;8.646;2023-06-19T08:07:16;27.90;73.80
54846;DHT22;53889;50.084;8.646;2023-06-19T08:09:44;27.70;73.20
54846;DHT22;53889;50.084;8.646;2023-06-19T08:12:11;27.60;74.00
54846;DHT22;53889;50.084;8.646;2023-06-19T08:14:39;27.90;73.50
54846;DHT22;53889;50.084;8.646;2023-06-19T08:17:06;28.00;72.40
54846;DHT22;53889;50.084;8.646;2023-06-19T08:19:32;27.90;72.60
54846;DHT22;53889;50.084;8.646;2023-06-19T08:21:59;27.80;73.10
54846;DHT22;53889;50.084;8.646;2023-06-19T08:24:26;27.70;73.40
54846;DHT22;53889;50.084;8.646;2023-06-19T08:26:53;27.90;72.80
54846;DHT22;53889;50.084;8.646;2023-06-19T08:29:20;27.60;73.30
54846;DHT22;53889;50.084;8.646;2023-06-19T08:31:49;27.30;74.00
54846;DHT22;53889;50.084;8.646;2023-06-19T08:34:16;27.40;73.60
54846;DHT22;53889;50.084;8.646;2023-06-19T08:36:42;28.20;72.80
54846;DHT22;53889;50.084;8.646;2023-06-19T08:39:09;29.00;71.20
54846;DHT22;53889;50.084;8.646;2023-06-19T08:41:36;30.10;69.90
54846;DHT22;53889;50.084;8.646;2023-06-19T08:44:04;30.50;68.10
54846;DHT22;53889;50.084;8.646;2023-06-19T08:46:31;31.40;66.90
54846;DHT22;53889;50.084;8.646;2023-06-19T08:48:59;31.20;66.90
54846;DHT22;53889;50.084;8.646;2023-06-19T08:51:27;31.20;66.30
54846;DHT22;53889;50.084;8.646;2023-06-19T08:53:59;31.30;66.10
54846;DHT22;53889;50.084;8.646;2023-06-19T08:56:26;31.50;65.40
54846;DHT22;53889;50.084;8.646;2023-06-19T08:58:53;31.40;66.10
54846;DHT22;53889;50.084;8.646;2023-06-19T09:01:20;30.40;66.70
54846;DHT22;53889;50.084;8.646;2023-06-19T09:03:47;30.70;67.00
54846;DHT22;53889;50.084;8.646;2023-06-19T09:06:18;31.20;65.80
54846;DHT22;53889;50.084;8.646;2023-06-19T09:08:45;31.20;65.70
54846;DHT22;53889;50.084;8.646;2023-06-19T09:11:12;31.80;65.20
54846;DHT22;53889;50.084;8.646;2023-06-19T09:13:39;32.30;63.80
54846;DHT22;53889;50.084;8.646;2023-06-19T09:16:07;32.90;63.30
54846;DHT22;53889;50.084;8.646;2023-06-19T09:18:43;32.60;63.30
54846;DHT22;53889;50.084;8.646;2023-06-19T09:21:15;32.30;64.20
54846;DHT22;53889;50.084;8.646;2023-06-19T09:23:44;32.10;64.20
54846;DHT22;53889;50.084;8.646;2023-06-19T09:26:14;32.40;63.40
54846;DHT22;53889;50.084;8.646;2023-06-19T09:28:42;33.40;62.20
54846;DHT22;53889;50.084;8.646;2023-06-19T09:31:08;33.00;61.50
54846;DHT22;53889;50.084;8.646;2023-06-19T09:33:36;31.40;64.70
54846;DHT22;53889;50.084;8.646;2023-06-19T09:36:04;31.40;65.30
54846;DHT22;53889;50.084;8.646;2023-06-19T09:38:32;30.90;66.10
54846;DHT22;53889;50.084;8.646;2023-06-19T09:41:03;30.60;66.00
54846;DHT22;53889;50.084;8.646;2023-06-19T09:43:33;30.30;66.60
54846;DHT22;53889;50.084;8.646;2023-06-19T09:46:02;30.40;66.40
54846;DHT22;53889;50.084;8.646;2023-06-19T09:48:30;30.60;66.60
54846;DHT22;53889;50.084;8.646;2023-06-19T09:51:02;31.20;65.70
54846;DHT22;53889;50.084;8.646;2023-06-19T09:53:29;31.50;64.90
54846;DHT22;53889;50.084;8.646;2023-06-19T09:55:57;32.00;64.40
54846;DHT22;53889;50.084;8.646;2023-06-19T09:58:25;32.40;63.50
54846;DHT22;53889;50.084;8.646;2023-06-19T10:00:53;32.40;62.90
54846;DHT22;53889;50.084;8.646;2023-06-19T10:03:20;31.90;63.40
54846;DHT22;53889;50.084;8.646;2023-06-19T10:05:58;32.30;63.20
54846;DHT22;53889;50.084;8.646;2023-06-19T10:08:30;32.60;62.80
54846;DHT22;53889;50.084;8.646;2023-06-19T10:10:57;32.70;62.40
54846;DHT22;53889;50.084;8.646;2023-06-19T10:13:32;32.70;62.30
54846;DHT22;53889;50.084;8.646;2023-06-19T10:16:00;33.30;61.70
54846;DHT22;53889;50.084;8.646;2023-06-19T10:18:27;33.00;61.70
54846;DHT22;53889;50.084;8.646;2023-06-19T10:20:55;32.50;62.10
54846;DHT22;53889;50.084;8.646;2023-06-19T10:23:22;31.90;63.90
54846;DHT22;53889;50.084;8.646;2023-06-19T10:25:55;30.80;65.50
54846;DHT22;53889;50.084;8.646;2023-06-19T10:28:24;31.00;65.00
54846;DHT22;53889;50.084;8.646;2023-06-19T10:30:54;31.00;65.70
54846;DHT22;53889;50.084;8.646;2023-06-19T10:33:21;30.90;65.50
54846;DHT22;53889;50.084;8.646;2023-06-19T10:35:48;30.70;65.50
54846;DHT22;53889;50.084;8.646;2023-06-19T10:38:15;29.90;67.50
54846;DHT22;53889;50.084;8.646;2023-06-19T10:40:43;29.50;68.70
54846;DHT22;53889;50.084;8.646;2023-06-19T10:43:10;29.40;69.50
54846;DHT22;53889;50.084;8.646;2023-06-19T10:45:37;29.40;70.10
54846;DHT22;53889;50.084;8.646;2023-06-19T10:48:05;29.50;69.80
54846;DHT22;53889;50.084;8.646;2023-06-19T10:50:37;30.10;68.30
54846;DHT22;53889;50.084;8.646;2023-06-19T10:53:06;30.70;66.80
54846;DHT22;53889;50.084;8.646;2023-06-19T10:55:32;31.00;65.50
54846;DHT22;53889;50.084;8.646;2023-06-19T10:58:03;31.40;65.40
54846;DHT22;53889;50.084;8.646;2023-06-19T11:00:32;31.80;65.30
54846;DHT22;53889;50.084;8.646;2023-06-19T11:02:59;32.30;63.70
54846;DHT22;53889;50.084;8.646;2023-06-19T11:05:27;32.10;63.70
54846;DHT22;53889;50.084;8.646;2023-06-19T11:07:56;31.60;64.40
54846;DHT22;53889;50.084;8.646;2023-06-19T11:10:24;31.30;64.80
54846;DHT22;53889;50.084;8.646;2023-06-19T11:12:54;30.60;65.10
54846;DHT22;53889;50.084;8.646;2023-06-19T11:15:28;30.40;66.20
54846;DHT22;53889;50.084;8.646;2023-06-19T11:17:55;29.90;68.00
54846;DHT22;53889;50.084;8.646;2023-06-19T11:20:22;29.90;67.20
54846;DHT22;53889;50.084;8.646;2023-06-19T11:22:54;29.90;66.70
54846;DHT22;53889;50.084;8.646;2023-06-19T11:25:22;29.90;66.80
54846;DHT22;53889;50.084;8.646;2023-06-19T11:27:48;30.00;66.10
54846;DHT22;53889;50.084;8.646;2023-06-19T11:30:17;30.00;66.00
54846;DHT22;53889;50.084;8.646;2023-06-19T11:32:46;30.20;65.10
54846;DHT22;53889;50.084;8.646;2023-06-19T11:35:15;30.00;65.70
54846;DHT22;53889;50.084;8.646;2023-06-19T11:37:43;30.00;65.40
54846;DHT22;53889;50.084;8.646;2023-06-19T11:40:11;29.80;66.10
54846;DHT22;53889;50.084;8.646;2023-06-19T11:42:46;29.70;66.90
54846;DHT22;53889;50.084;8.646;2023-06-19T11:45:13;29.90;66.30
54846;DHT22;53889;50.084;8.646;2023-06-19T11:47:40;29.90;66.60
54846;DHT22;53889;50.084;8.646;2023-06-19T11:50:08;30.00;67.00
54846;DHT22;53889;50.084;8.646;2023-06-19T11:52:34;29.90;67.40
54846;DHT22;53889;50.084;8.646;2023-06-19T11:55:01;30.00;66.90
54846;DHT22;53889;50.084;8.646;2023-06-19T11:57:29;30.40;67.20
54846;DHT22;53889;50.084;8.646;2023-06-19T11:59:57;30.70;66.90
54846;DHT22;53889;50.084;8.646;2023-06-19T12:02:24;30.90;66.40
54846;DHT22;53889;50.084;8.646;2023-06-19T12:04:51;31.10;66.30
54846;DHT22;53889;50.084;8.646;2023-06-19T12:07:18;31.60;65.10
54846;DHT22;53889;50.084;8.646;2023-06-19T12:09:45;32.00;64.40
54846;DHT22;53889;50.084;8.646;2023-06-19T12:12:12;32.40;64.20
54846;DHT22;53889;50.084;8.646;2023-06-19T12:14:40;32.50;63.40
54846;DHT22;53889;50.084;8.646;2023-06-19T12:17:06;32.10;64.50
54846;DHT22;53889;50.084;8.646;2023-06-19T12:19:33;31.80;63.60
54846;DHT22;53889;50.084;8.646;2023-06-19T12:22:00;32.30;62.60
54846;DHT22;53889;50.084;8.646;2023-06-19T12:24:27;32.90;61.60
54846;DHT22;53889;50.084;8.646;2023-06-19T12:26:53;33.20;61.40
54846;DHT22;53889;50.084;8.646;2023-06-19T12:29:20;33.60;60.40
54846;DHT22;53889;50.084;8.646;2023-06-19T12:31:48;32.70;61.80
54846;DHT22;53889;50.084;8.646;2023-06-19T12:34:15;33.10;61.20
54846;DHT22;53889;50.084;8.646;2023-06-19T12:36:43;33.10;60.90
54846;DHT22;53889;50.084;8.646;2023-06-19T12:39:10;33.40;60.30
54846;DHT22;53889;50.084;8.646;2023-06-19T12:41:41;33.40;60.70
54846;DHT22;53889;50.084;8.646;2023-06-19T12:44:08;33.60;59.90
54846;DHT22;53889;50.084;8.646;2023-06-19T12:46:35;31.60;62.90
54846;DHT22;53889;50.084;8.646;2023-06-19T12:49:03;32.30;62.70
54846;DHT22;53889;50.084;8.646;2023-06-19T12:51:30;33.10;61.00
54846;DHT22;53889;50.084;8.646;2023-06-19T12:53:57;32.80;60.90
54846;DHT22;53889;50.084;8.646;2023-06-19T12:56:23;32.40;61.00
54846;DHT22;53889;50.084;8.646;2023-06-19T12:58:50;31.90;61.60
54846;DHT22;53889;50.084;8.646;2023-06-19T13:01:17;31.80;62.00
54846;DHT22;53889;50.084;8.646;2023-06-19T13:03:43;31.50;62.80
54846;DHT22;53889;50.084;8.646;2023-06-19T13:06:11;31.60;62.40
54846;DHT22;53889;50.084;8.646;2023-06-19T13:08:38;31.60;62.40
54846;DHT22;53889;50.084;8.646;2023-06-19T13:11:05;31.70;62.10
54846;DHT22;53889;50.084;8.646;2023-06-19T13:13:31;31.50;62.50
54846;DHT22;53889;50.084;8.646;2023-06-19T13:15:58;31.70;62.50
54846;DHT22;53889;50.084;8.646;2023-06-19T13:18:25;31.40;62.80
54846;DHT22;53889;50.084;8.646;2023-06-19T13:20:52;31.60;62.60
54846;DHT22;53889;50.084;8.646;2023-06-19T13:23:20;31.40;62.50
54846;DHT22;53889;50.084;8.646;2023-06-19T13:25:47;31.00;62.60
54846;DHT22;53889;50.084;8.646;2023-06-19T13:28:16;30.90;63.10
54846;DHT22;53889;50.084;8.646;2023-06-19T13:30:43;30.60;63.70
54846;DHT22;53889;50.084;8.646;2023-06-19T13:33:11;30.30;63.60
54846;DHT22;53889;50.084;8.646;2023-06-19T13:35:38;30.10;63.80
54846;DHT22;53889;50.084;8.646;2023-06-19T13:38:04;30.10;63.50
54846;DHT22;53889;50.084;8.646;2023-06-19T13:40:33;29.80;64.00
54846;DHT22;53889;50.084;8.646;2023-06-19T13:43:00;29.60;64.50
54846;DHT22;53889;50.084;8.646;2023-06-19T13:45:28;29.70;64.30
54846;DHT22;53889;50.084;8.646;2023-06-19T13:47:54;29.80;64.50
54846;DHT22;53889;50.084;8.646;2023-06-19T13:50:21;30.00;63.90
54846;DHT22;53889;50.084;8.646;2023-06-19T13:52:49;30.30;63.20
54846;DHT22;53889;50.084;8.646;2023-06-19T13:55:16;30.60;62.30
54846;DHT22;53889;50.084;8.646;2023-06-19T13:57:45;30.60;62.30
54846;DHT22;53889;50.084;8.646;2023-06-19T14:00:13;30.60;62.20
54846;DHT22;53889;50.084;8.646;2023-06-19T14:02:40;30.50;61.70
54846;DHT22;53889;50.084;8.646;2023-06-19T14:05:08;30.60;61.30
54846;DHT22;53889;50.084;8.646;2023-06-19T14:07:35;30.50;61.10
54846;DHT22;53889;50.084;8.646;2023-06-19T14:10:03;30.40;61.10
54846;DHT22;53889;50.084;8.646;2023-06-19T14:12:31;30.30;61.50
54846;DHT22;53889;50.084;8.646;2023-06-19T14:14:59;30.20;61.50
54846;DHT22;53889;50.084;8.646;2023-06-19T14:17:25;30.20;61.10
54846;DHT22;53889;50.084;8.646;2023-06-19T14:19:52;30.40;60.10
54846;DHT22;53889;50.084;8.646;2023-06-19T14:22:21;30.30;60.30
54846;DHT22;53889;50.084;8.646;2023-06-19T14:24:47;30.40;60.60
54846;DHT22;53889;50.084;8.646;2023-06-19T14:27:14;30.40;60.00
54846;DHT22;53889;50.084;8.646;2023-06-19T14:29:41;30.50;59.40
54846;DHT22;53889;50.084;8.646;2023-06-19T14:32:09;30.40;58.80
54846;DHT22;53889;50.084;8.646;2023-06-19T14:34:36;30.30;58.20
54846;DHT22;53889;50.084;8.646;2023-06-19T14:37:03;30.30;57.90
54846;DHT22;53889;50.084;8.646;2023-06-19T14:39:29;30.10;57.90
54846;DHT22;53889;50.084;8.646;2023-06-19T14:41:56;30.10;57.80
54846;DHT22;53889;50.084;8.646;2023-06-19T14:44:23;30.10;58.20
54846;DHT22;53889;50.084;8.646;2023-06-19T14:46:49;29.90;57.80
54846;DHT22;53889;50.084;8.646;2023-06-19T14:49:18;30.00;58.10
54846;DHT22;53889;50.084;8.646;2023-06-19T14:51:45;30.00;58.10
54846;DHT22;53889;50.084;8.646;2023-06-19T14:54:12;30.20;57.40
54846;DHT22;53889;50.084;8.646;2023-06-19T14:56:41;30.40;57.20
54846;DHT22;53889;50.084;8.646;2023-06-19T14:59:07;30.20;58.40
54846;DHT22;53889;50.084;8.646;2023-06-19T15:01:34;30.30;57.80
54846;DHT22;53889;50.084;8.646;2023-06-19T15:04:01;30.40;57.10
54846;DHT22;53889;50.084;8.646;2023-06-19T15:06:29;30.40;57.20
54846;DHT22;53889;50.084;8.646;2023-06-19T15:08:56;30.20;58.10
54846;DHT22;53889;50.084;8.646;2023-06-19T15:11:22;30.50;58.40
54846;DHT22;53889;50.084;8.646;2023-06-19T15:13:49;30.60;58.60
54846;DHT22;53889;50.084;8.646;2023-06-19T15:16:17;30.60;58.20
54846;DHT22;53889;50.084;8.646;2023-06-19T15:18:47;30.60;58.00
54846;DHT22;53889;50.084;8.646;2023-06-19T15:21:14;30.70;58.20
54846;DHT22;53889;50.084;8.646;2023-06-19T15:23:42;30.90;57.80
54846;DHT22;53889;50.084;8.646;2023-06-19T15:26:09;31.00;57.10
54846;DHT22;53889;50.084;8.646;2023-06-19T15:28:36;30.90;56.70
54846;DHT22;53889;50.084;8.646;2023-06-19T15:31:03;30.70;57.00